Briefing drone pour Saint-just-saint-rambert

Rechercher une autre localisation

Conditions de vol :


Nous sommes le : Mercredi 24 février 2021
Il est 20:33 UTC (21:33 LT)

Lever de soleil : 06:02 UTC (07:02 LT)
Coucher de soleil : 17:49 UTC (18:49 LT)

Météo

L'essentiel des conditions de vol

VIGILANCE MÉTÉO FRANCE - Loire (42)
Pas de vigilances particulieres
METAR de LFMH
LFMH 242000Z AUTO 12006KT CAVOK 12/M02 Q1030

Date d'émission: 24/02/2021
Heure d'émission: 20:00 UTC
Vent: 120° pour 6 KT (11 km/h)
Visibilité horizontale: > 10 km
Plafond : Plafond et visibilité OK (CAVOK)
Température: 12 °C
Point de rosée: -2 °C
Humidité: 38%
Pression (QNH): 1030 hPa
TAF de LFMH
LFMH 242000Z 2420/2518 CNL

Conditions prévues :

Heure d'émission : Bulletin éffectué le 24 à 20:00 UTC
Prévision : Valide du 24 a 20:00 UTC au 25 a 18:00 UTC
Nuages : à 0ft (0 m)
WEBCAM POUR SAINT-JUST-SAINT-RAMBERT

Réglementation

Voler en sécurité

CARTES AERONAUTIQUE 1/500.000
CARTES VAC (LFMH)
SUP AIP




Chargement des AIP...
NOTAM (SAINT-JUST-SAINT-RAMBERT + Terrain à proximité / FIR )




Chargement des NOTAMS...
CONTACT PREFECTURE 42


Avertissement : Les données mises à disposition sont indicatives. Oxygène Drone ne pourra être tenu responsable de dégâts causés aux biens et aux personnes.